Saint Anthony, Canada
Current Conditions -  °F | °C
As of 5:00 AM on Tuesday 27 Jan 2015 (Local Time) from CYAY Reporting Station
Clear Clear  
Wind Chill: -29°   Ceiling: Unl
Heat Index: -19°   Visibility: 9mi
Dew Point: -24°   Wind: 12mph
Humidity: 66%   Direction: 270°W
Pressure: 30.37"   Gusts: 18mph
Location:  51.48°N, 55.81°W
Report Text: CYAY 270800Z AUTO 27010G16KT 9SM CLR M19/M24 A3037 RMK PRESRR SLP288
Loading
Personal Weather Stations






























Interactive Weather Map New forecast layout! Learn more

10-Day Weather Forecast

Advertisements
Track Severe Weather on mobile